sensor_id;sensor_type;location;lat;lon;timestamp;pressure;altitude;pressure_sealevel;temperature;humidity
69574;BME280;62840;52.366;5.980;2023-03-04T00:00:21;102552.00;;;6.18;64.17
69574;BME280;62840;52.366;5.980;2023-03-04T00:02:47;102543.97;;;6.20;64.23
69574;BME280;62840;52.366;5.980;2023-03-04T00:05:13;102547.56;;;6.19;64.17
69574;BME280;62840;52.366;5.980;2023-03-04T00:07:38;102551.06;;;6.19;64.38
69574;BME280;62840;52.366;5.980;2023-03-04T00:10:05;102549.41;;;6.17;64.16
69574;BME280;62840;52.366;5.980;2023-03-04T00:12:32;102553.94;;;6.13;64.49
69574;BME280;62840;52.366;5.980;2023-03-04T00:15:00;102549.63;;;6.11;64.35
69574;BME280;62840;52.366;5.980;2023-03-04T00:17:26;102546.06;;;6.12;64.53
69574;BME280;62840;52.366;5.980;2023-03-04T00:19:52;102543.44;;;6.12;64.59
69574;BME280;62840;52.366;5.980;2023-03-04T00:22:17;102551.28;;;6.13;64.52
69574;BME280;62840;52.366;5.980;2023-03-04T00:24:43;102543.31;;;6.15;64.66
69574;BME280;62840;52.366;5.980;2023-03-04T00:27:09;102542.38;;;6.16;64.43
69574;BME280;62840;52.366;5.980;2023-03-04T00:29:34;102547.66;;;6.16;64.27
69574;BME280;62840;52.366;5.980;2023-03-04T00:32:03;102548.47;;;6.18;64.67
69574;BME280;62840;52.366;5.980;2023-03-04T00:34:30;102540.53;;;6.18;64.56
69574;BME280;62840;52.366;5.980;2023-03-04T00:36:56;102542.31;;;6.17;64.24
69574;BME280;62840;52.366;5.980;2023-03-04T00:39:21;102536.16;;;6.17;64.50
69574;BME280;62840;52.366;5.980;2023-03-04T00:41:47;102540.59;;;6.16;64.38
69574;BME280;62840;52.366;5.980;2023-03-04T00:44:13;102542.38;;;6.16;64.55
69574;BME280;62840;52.366;5.980;2023-03-04T00:46:38;102540.53;;;6.18;64.64
69574;BME280;62840;52.366;5.980;2023-03-04T00:49:07;102528.22;;;6.17;64.68
69574;BME280;62840;52.366;5.980;2023-03-04T00:51:32;102541.47;;;6.17;64.67
69574;BME280;62840;52.366;5.980;2023-03-04T00:53:58;102538.84;;;6.15;64.53
69574;BME280;62840;52.366;5.980;2023-03-04T00:56:24;102541.50;;;6.15;64.63
69574;BME280;62840;52.366;5.980;2023-03-04T00:58:50;102536.22;;;6.15;64.27
69574;BME280;62840;52.366;5.980;2023-03-04T01:01:15;102538.91;;;6.14;64.30
69574;BME280;62840;52.366;5.980;2023-03-04T01:03:41;102537.06;;;6.16;64.31
69574;BME280;62840;52.366;5.980;2023-03-04T01:06:09;102540.66;;;6.15;64.35
69574;BME280;62840;52.366;5.980;2023-03-04T01:08:35;102546.00;;;6.13;64.14
69574;BME280;62840;52.366;5.980;2023-03-04T01:11:01;102540.66;;;6.15;64.17
69574;BME280;62840;52.366;5.980;2023-03-04T01:13:27;102546.75;;;6.17;64.15
69574;BME280;62840;52.366;5.980;2023-03-04T01:15:53;102542.38;;;6.16;64.21
69574;BME280;62840;52.366;5.980;2023-03-04T01:18:19;102545.94;;;6.15;64.28
69574;BME280;62840;52.366;5.980;2023-03-04T01:20:44;102541.50;;;6.15;63.98
69574;BME280;62840;52.366;5.980;2023-03-04T01:23:13;102538.84;;;6.15;64.16
69574;BME280;62840;52.366;5.980;2023-03-04T01:25:38;102537.06;;;6.16;64.01
69574;BME280;62840;52.366;5.980;2023-03-04T01:28:04;102522.91;;;6.17;64.15
69574;BME280;62840;52.366;5.980;2023-03-04T01:30:30;102535.22;;;6.18;64.02
69574;BME280;62840;52.366;5.980;2023-03-04T01:32:56;102536.13;;;6.18;64.00
69574;BME280;62840;52.366;5.980;2023-03-04T01:35:22;102533.50;;;6.17;64.39
69574;BME280;62840;52.366;5.980;2023-03-04T01:37:48;102529.06;;;6.17;64.04
69574;BME280;62840;52.366;5.980;2023-03-04T01:40:16;102517.63;;;6.17;64.20
69574;BME280;62840;52.366;5.980;2023-03-04T01:42:43;102515.88;;;6.16;63.98
69574;BME280;62840;52.366;5.980;2023-03-04T01:45:12;102517.63;;;6.17;64.11
69574;BME280;62840;52.366;5.980;2023-03-04T01:47:40;102508.88;;;6.15;63.97
69574;BME280;62840;52.366;5.980;2023-03-04T01:50:18;102505.28;;;6.16;64.12
69574;BME280;62840;52.366;5.980;2023-03-04T01:52:46;102505.28;;;6.16;63.95
69574;BME280;62840;52.366;5.980;2023-03-04T01:55:18;102501.72;;;6.17;64.03
69574;BME280;62840;52.366;5.980;2023-03-04T01:57:46;102498.28;;;6.15;64.22
69574;BME280;62840;52.366;5.980;2023-03-04T02:00:27;102494.69;;;6.16;64.04
69574;BME280;62840;52.366;5.980;2023-03-04T02:02:57;102489.50;;;6.13;63.86
69574;BME280;62840;52.366;5.980;2023-03-04T02:05:25;102492.97;;;6.15;64.02
69574;BME280;62840;52.366;5.980;2023-03-04T02:07:53;102489.38;;;6.16;64.13
69574;BME280;62840;52.366;5.980;2023-03-04T02:10:24;102486.72;;;6.16;64.08
69574;BME280;62840;52.366;5.980;2023-03-04T02:12:50;102479.72;;;6.15;63.99
69574;BME280;62840;52.366;5.980;2023-03-04T02:15:17;102487.66;;;6.15;64.15
69574;BME280;62840;52.366;5.980;2023-03-04T02:17:43;102485.03;;;6.15;63.88
69574;BME280;62840;52.366;5.980;2023-03-04T02:20:17;102484.16;;;6.14;64.00
69574;BME280;62840;52.366;5.980;2023-03-04T02:23:00;102475.41;;;6.12;63.86
69574;BME280;62840;52.366;5.980;2023-03-04T02:25:38;102478.09;;;6.11;63.98
69574;BME280;62840;52.366;5.980;2023-03-04T02:28:12;102478.91;;;6.13;64.02
69574;BME280;62840;52.366;5.980;2023-03-04T02:30:38;102474.56;;;6.12;64.20
69574;BME280;62840;52.366;5.980;2023-03-04T02:33:04;102471.00;;;6.11;63.90
69574;BME280;62840;52.366;5.980;2023-03-04T02:35:31;102466.59;;;6.12;64.01
69574;BME280;62840;52.366;5.980;2023-03-04T02:37:57;102469.31;;;6.10;63.94
69574;BME280;62840;52.366;5.980;2023-03-04T02:40:26;102468.31;;;6.13;63.86
69574;BME280;62840;52.366;5.980;2023-03-04T02:42:57;102471.78;;;6.15;64.11
69574;BME280;62840;52.366;5.980;2023-03-04T02:45:30;102461.19;;;6.15;63.80
69574;BME280;62840;52.366;5.980;2023-03-04T02:48:00;102466.47;;;6.15;63.87
69574;BME280;62840;52.366;5.980;2023-03-04T02:50:29;102460.31;;;6.14;63.79
69574;BME280;62840;52.366;5.980;2023-03-04T02:52:58;102454.13;;;6.14;64.03
69574;BME280;62840;52.366;5.980;2023-03-04T02:55:24;102445.41;;;6.12;64.03
69574;BME280;62840;52.366;5.980;2023-03-04T02:57:50;102453.38;;;6.12;63.84
69574;BME280;62840;52.366;5.980;2023-03-04T03:00:16;102450.72;;;6.12;64.05
69574;BME280;62840;52.366;5.980;2023-03-04T03:02:44;102440.22;;;6.08;64.11
69574;BME280;62840;52.366;5.980;2023-03-04T03:05:11;102438.50;;;6.07;63.90
69574;BME280;62840;52.366;5.980;2023-03-04T03:07:37;102446.38;;;6.09;63.98
69574;BME280;62840;52.366;5.980;2023-03-04T03:10:03;102440.22;;;6.08;63.79
69574;BME280;62840;52.366;5.980;2023-03-04T03:12:29;102435.00;;;6.07;64.13
69574;BME280;62840;52.366;5.980;2023-03-04T03:14:55;102436.75;;;6.06;64.00
69574;BME280;62840;52.366;5.980;2023-03-04T03:17:21;102427.91;;;6.07;64.19
69574;BME280;62840;52.366;5.980;2023-03-04T03:19:49;102434.91;;;6.08;64.19
69574;BME280;62840;52.366;5.980;2023-03-04T03:22:15;102426.97;;;6.08;64.18
69574;BME280;62840;52.366;5.980;2023-03-04T03:24:40;102422.47;;;6.11;64.26
69574;BME280;62840;52.366;5.980;2023-03-04T03:27:06;102434.91;;;6.08;64.10
69574;BME280;62840;52.366;5.980;2023-03-04T03:29:32;102424.31;;;6.08;64.30
69574;BME280;62840;52.366;5.980;2023-03-04T03:31:58;102430.47;;;6.09;64.09
69574;BME280;62840;52.366;5.980;2023-03-04T03:34:23;102424.31;;;6.08;64.20
69574;BME280;62840;52.366;5.980;2023-03-04T03:36:52;102419.84;;;6.11;64.05
69574;BME280;62840;52.366;5.980;2023-03-04T03:39:18;102425.13;;;6.11;64.29
69574;BME280;62840;52.366;5.980;2023-03-04T03:41:44;102428.72;;;6.09;64.15
69574;BME280;62840;52.366;5.980;2023-03-04T03:44:10;102426.06;;;6.09;64.31
69574;BME280;62840;52.366;5.980;2023-03-04T03:46:35;102418.13;;;6.09;64.26
69574;BME280;62840;52.366;5.980;2023-03-04T03:49:01;102426.94;;;6.10;64.36
69574;BME280;62840;52.366;5.980;2023-03-04T03:51:27;102424.31;;;6.08;64.45
69574;BME280;62840;52.366;5.980;2023-03-04T03:53:55;102418.16;;;6.08;64.49
69574;BME280;62840;52.366;5.980;2023-03-04T03:56:21;102422.63;;;6.07;64.52
69574;BME280;62840;52.366;5.980;2023-03-04T03:58:47;102424.31;;;6.08;64.42
69574;BME280;62840;52.366;5.980;2023-03-04T04:01:12;102428.75;;;6.08;64.61
69574;BME280;62840;52.366;5.980;2023-03-04T04:03:38;102420.88;;;6.06;64.62
69574;BME280;62840;52.366;5.980;2023-03-04T04:06:05;102420.81;;;6.08;64.74
69574;BME280;62840;52.366;5.980;2023-03-04T04:08:31;102413.81;;;6.07;64.85
69574;BME280;62840;52.366;5.980;2023-03-04T04:10:59;102423.59;;;6.05;64.83
69574;BME280;62840;52.366;5.980;2023-03-04T04:13:25;102419.25;;;6.02;64.65
69574;BME280;62840;52.366;5.980;2023-03-04T04:15:51;102412.25;;;6.01;64.88
69574;BME280;62840;52.366;5.980;2023-03-04T04:18:17;102413.97;;;6.02;64.68
69574;BME280;62840;52.366;5.980;2023-03-04T04:20:42;102408.66;;;6.02;64.78
69574;BME280;62840;52.366;5.980;2023-03-04T04:23:08;102413.09;;;6.02;64.94
69574;BME280;62840;52.366;5.980;2023-03-04T04:25:34;102406.13;;;5.99;64.97
69574;BME280;62840;52.366;5.980;2023-03-04T04:28:02;102407.88;;;6.00;64.96
69574;BME280;62840;52.366;5.980;2023-03-04T04:30:28;102410.53;;;6.00;64.89
69574;BME280;62840;52.366;5.980;2023-03-04T04:32:54;102406.94;;;6.01;64.83
69574;BME280;62840;52.366;5.980;2023-03-04T04:35:20;102408.78;;;5.99;65.01
69574;BME280;62840;52.366;5.980;2023-03-04T04:37:45;102413.19;;;6.00;64.84
69574;BME280;62840;52.366;5.980;2023-03-04T04:40:12;102405.25;;;6.00;65.07
69574;BME280;62840;52.366;5.980;2023-03-04T04:42:38;102412.25;;;6.01;64.96
69574;BME280;62840;52.366;5.980;2023-03-04T04:45:08;102400.72;;;6.02;64.74
69574;BME280;62840;52.366;5.980;2023-03-04T04:47:34;102409.53;;;6.03;64.89
69574;BME280;62840;52.366;5.980;2023-03-04T04:50:00;102421.00;;;6.03;64.70
69574;BME280;62840;52.366;5.980;2023-03-04T04:52:25;102412.13;;;6.04;64.86
69574;BME280;62840;52.366;5.980;2023-03-04T04:54:51;102410.28;;;6.06;64.80
69574;BME280;62840;52.366;5.980;2023-03-04T04:57:17;102412.03;;;6.07;64.75
69574;BME280;62840;52.366;5.980;2023-03-04T04:59:42;102404.88;;;6.09;64.96
69574;BME280;62840;52.366;5.980;2023-03-04T05:02:11;102411.88;;;6.11;64.85
69574;BME280;62840;52.366;5.980;2023-03-04T05:04:37;102408.34;;;6.12;64.68
69574;BME280;62840;52.366;5.980;2023-03-04T05:07:02;102408.38;;;6.10;65.02
69574;BME280;62840;52.366;5.980;2023-03-04T05:09:28;102410.19;;;6.09;65.10
69574;BME280;62840;52.366;5.980;2023-03-04T05:11:54;102415.47;;;6.09;64.84
69574;BME280;62840;52.366;5.980;2023-03-04T05:14:19;102406.59;;;6.11;64.88
69574;BME280;62840;52.366;5.980;2023-03-04T05:16:45;102405.69;;;6.12;65.06
69574;BME280;62840;52.366;5.980;2023-03-04T05:19:13;102407.41;;;6.13;65.08
69574;BME280;62840;52.366;5.980;2023-03-04T05:21:39;102410.03;;;6.13;64.83
69574;BME280;62840;52.366;5.980;2023-03-04T05:24:05;102410.91;;;6.13;65.14
69574;BME280;62840;52.366;5.980;2023-03-04T05:26:31;102406.59;;;6.11;65.15
69574;BME280;62840;52.366;5.980;2023-03-04T05:28:57;102413.63;;;6.12;65.14
69574;BME280;62840;52.366;5.980;2023-03-04T05:31:23;102406.59;;;6.11;65.22
69574;BME280;62840;52.366;5.980;2023-03-04T05:33:49;102410.19;;;6.09;65.08
69574;BME280;62840;52.366;5.980;2023-03-04T05:36:17;102404.88;;;6.09;65.23
69574;BME280;62840;52.366;5.980;2023-03-04T05:38:43;102404.06;;;6.07;65.28
69574;BME280;62840;52.366;5.980;2023-03-04T05:41:08;102406.72;;;6.07;65.26
69574;BME280;62840;52.366;5.980;2023-03-04T05:43:34;102406.72;;;6.07;65.36
69574;BME280;62840;52.366;5.980;2023-03-04T05:46:00;102412.88;;;6.08;65.11
69574;BME280;62840;52.366;5.980;2023-03-04T05:48:27;102419.97;;;6.07;65.14
69574;BME280;62840;52.366;5.980;2023-03-04T05:50:54;102417.22;;;6.09;65.19
69574;BME280;62840;52.366;5.980;2023-03-04T05:53:23;102415.47;;;6.09;65.35
69574;BME280;62840;52.366;5.980;2023-03-04T05:55:50;102419.03;;;6.08;65.30
69574;BME280;62840;52.366;5.980;2023-03-04T05:58:17;102419.03;;;6.08;65.21
69574;BME280;62840;52.366;5.980;2023-03-04T06:00:43;102413.84;;;6.05;65.48
69574;BME280;62840;52.366;5.980;2023-03-04T06:03:13;102419.16;;;6.05;65.65
69574;BME280;62840;52.366;5.980;2023-03-04T06:05:40;102412.13;;;6.04;65.59
69574;BME280;62840;52.366;5.980;2023-03-04T06:08:05;102422.72;;;6.04;65.61
69574;BME280;62840;52.366;5.980;2023-03-04T06:10:34;102421.00;;;6.03;65.91
69574;BME280;62840;52.366;5.980;2023-03-04T06:12:59;102415.81;;;6.00;66.04
69574;BME280;62840;52.366;5.980;2023-03-04T06:15:25;102410.63;;;5.97;65.98
69574;BME280;62840;52.366;5.980;2023-03-04T06:17:51;102405.34;;;5.97;65.89
69574;BME280;62840;52.366;5.980;2023-03-04T06:20:17;102403.63;;;5.96;66.04
69574;BME280;62840;52.366;5.980;2023-03-04T06:22:43;102407.16;;;5.95;66.09
69574;BME280;62840;52.366;5.980;2023-03-04T06:25:09;102413.31;;;5.96;66.01
69574;BME280;62840;52.366;5.980;2023-03-04T06:27:37;102414.22;;;5.96;66.33
69574;BME280;62840;52.366;5.980;2023-03-04T06:30:04;102418.56;;;5.97;66.25
69574;BME280;62840;52.366;5.980;2023-03-04T06:32:31;102417.66;;;5.98;66.03
69574;BME280;62840;52.366;5.980;2023-03-04T06:34:57;102410.53;;;6.00;66.27
69574;BME280;62840;52.366;5.980;2023-03-04T06:37:23;102411.47;;;5.98;66.09
69574;BME280;62840;52.366;5.980;2023-03-04T06:39:48;102412.38;;;5.98;66.22
69574;BME280;62840;52.366;5.980;2023-03-04T06:42:14;102410.59;;;5.99;66.05
69574;BME280;62840;52.366;5.980;2023-03-04T06:44:43;102414.09;;;5.99;66.20
69574;BME280;62840;52.366;5.980;2023-03-04T06:47:09;102414.03;;;6.01;66.13
69574;BME280;62840;52.366;5.980;2023-03-04T06:49:34;102418.34;;;6.03;66.33
69574;BME280;62840;52.366;5.980;2023-03-04T06:52:00;102415.56;;;6.06;66.38
69574;BME280;62840;52.366;5.980;2023-03-04T06:54:26;102419.03;;;6.08;66.23
69574;BME280;62840;52.366;5.980;2023-03-04T06:56:52;102420.78;;;6.09;66.35
69574;BME280;62840;52.366;5.980;2023-03-04T06:59:18;102422.44;;;6.12;66.31
69574;BME280;62840;52.366;5.980;2023-03-04T07:01:46;102423.25;;;6.14;66.15
69574;BME280;62840;52.366;5.980;2023-03-04T07:04:13;102429.25;;;6.18;66.46
69574;BME280;62840;52.366;5.980;2023-03-04T07:06:39;102432.72;;;6.20;66.29
69574;BME280;62840;52.366;5.980;2023-03-04T07:09:05;102422.94;;;6.22;66.45
69574;BME280;62840;52.366;5.980;2023-03-04T07:11:30;102425.44;;;6.25;66.42
69574;BME280;62840;52.366;5.980;2023-03-04T07:13:56;102424.53;;;6.26;66.51
69574;BME280;62840;52.366;5.980;2023-03-04T07:16:22;102435.19;;;6.24;66.74
69574;BME280;62840;52.366;5.980;2023-03-04T07:18:51;102436.94;;;6.25;66.75
69574;BME280;62840;52.366;5.980;2023-03-04T07:21:17;102428.91;;;6.27;66.57
69574;BME280;62840;52.366;5.980;2023-03-04T07:23:44;102426.22;;;6.28;66.54
69574;BME280;62840;52.366;5.980;2023-03-04T07:26:11;102432.25;;;6.32;66.70
69574;BME280;62840;52.366;5.980;2023-03-04T07:28:37;102433.97;;;6.33;66.84
69574;BME280;62840;52.366;5.980;2023-03-04T07:31:08;102433.91;;;6.35;66.71
69574;BME280;62840;52.366;5.980;2023-03-04T07:33:38;102434.66;;;6.38;66.89
69574;BME280;62840;52.366;5.980;2023-03-04T07:36:06;102437.19;;;6.41;66.76
69574;BME280;62840;52.366;5.980;2023-03-04T07:38:32;102437.91;;;6.45;66.90
69574;BME280;62840;52.366;5.980;2023-03-04T07:40:58;102435.22;;;6.46;66.99
69574;BME280;62840;52.366;5.980;2023-03-04T07:43:25;102437.72;;;6.49;66.80
69574;BME280;62840;52.366;5.980;2023-03-04T07:45:51;102437.53;;;6.54;66.67
69574;BME280;62840;52.366;5.980;2023-03-04T07:48:16;102435.66;;;6.58;66.82
69574;BME280;62840;52.366;5.980;2023-03-04T07:50:42;102436.44;;;6.60;66.89
69574;BME280;62840;52.366;5.980;2023-03-04T07:53:10;102438.16;;;6.61;66.84
69574;BME280;62840;52.366;5.980;2023-03-04T07:55:36;102442.50;;;6.63;67.10
69574;BME280;62840;52.366;5.980;2023-03-04T07:58:02;102441.63;;;6.63;67.81
69574;BME280;62840;52.366;5.980;2023-03-04T08:00:28;102446.91;;;6.63;67.32
69574;BME280;62840;52.366;5.980;2023-03-04T08:02:54;102446.91;;;6.63;67.72
69574;BME280;62840;52.366;5.980;2023-03-04T08:05:19;102449.53;;;6.64;67.64
69574;BME280;62840;52.366;5.980;2023-03-04T08:07:45;102439.78;;;6.65;67.41
69574;BME280;62840;52.366;5.980;2023-03-04T08:10:13;102443.22;;;6.67;67.58
69574;BME280;62840;52.366;5.980;2023-03-04T08:12:39;102438.72;;;6.69;67.48
69574;BME280;62840;52.366;5.980;2023-03-04T08:15:06;102450.00;;;6.74;67.71
69574;BME280;62840;52.366;5.980;2023-03-04T08:17:34;102447.16;;;6.79;67.89
69574;BME280;62840;52.366;5.980;2023-03-04T08:20:00;102443.47;;;6.83;67.81
69574;BME280;62840;52.366;5.980;2023-03-04T08:22:25;102443.22;;;6.89;67.68
69574;BME280;62840;52.366;5.980;2023-03-04T08:24:51;102447.38;;;6.95;67.65
69574;BME280;62840;52.366;5.980;2023-03-04T08:27:19;102440.00;;;7.03;67.71
69574;BME280;62840;52.366;5.980;2023-03-04T08:29:45;102448.75;;;7.05;67.56
69574;BME280;62840;52.366;5.980;2023-03-04T08:32:11;102453.91;;;7.08;67.56
69574;BME280;62840;52.366;5.980;2023-03-04T08:34:38;102440.41;;;7.14;67.65
69574;BME280;62840;52.366;5.980;2023-03-04T08:37:04;102450.88;;;7.17;67.61
69574;BME280;62840;52.366;5.980;2023-03-04T08:39:30;102447.09;;;7.23;67.74
69574;BME280;62840;52.366;5.980;2023-03-04T08:41:55;102450.50;;;7.26;67.61
69574;BME280;62840;52.366;5.980;2023-03-04T08:44:24;102454.88;;;7.27;67.74
69574;BME280;62840;52.366;5.980;2023-03-04T08:46:50;102451.28;;;7.28;67.76
69574;BME280;62840;52.366;5.980;2023-03-04T08:49:15;102445.84;;;7.31;67.74
69574;BME280;62840;52.366;5.980;2023-03-04T08:51:41;102450.97;;;7.36;67.64
69574;BME280;62840;52.366;5.980;2023-03-04T08:54:07;102452.50;;;7.42;68.00
69574;BME280;62840;52.366;5.980;2023-03-04T08:56:33;102443.47;;;7.46;67.72
69574;BME280;62840;52.366;5.980;2023-03-04T08:58:58;102451.38;;;7.47;67.89
69574;BME280;62840;52.366;5.980;2023-03-04T09:01:27;102439.03;;;7.46;67.60
69574;BME280;62840;52.366;5.980;2023-03-04T09:03:53;102439.91;;;7.47;67.68
69574;BME280;62840;52.366;5.980;2023-03-04T09:06:19;102439.63;;;7.53;67.83
69574;BME280;62840;52.366;5.980;2023-03-04T09:08:45;102438.44;;;7.60;67.83
69574;BME280;62840;52.366;5.980;2023-03-04T09:11:12;102435.38;;;7.69;67.77
69574;BME280;62840;52.366;5.980;2023-03-04T09:13:38;102434.09;;;7.78;67.73
69574;BME280;62840;52.366;5.980;2023-03-04T09:16:08;102425.84;;;7.84;67.41
69574;BME280;62840;52.366;5.980;2023-03-04T09:18:38;102430.00;;;7.90;67.31
69574;BME280;62840;52.366;5.980;2023-03-04T09:21:05;102437.84;;;7.93;67.18
69574;BME280;62840;52.366;5.980;2023-03-04T09:23:30;102433.31;;;7.95;67.25
69574;BME280;62840;52.366;5.980;2023-03-04T09:25:56;102434.09;;;7.97;67.16
69574;BME280;62840;52.366;5.980;2023-03-04T09:28:22;102433.94;;;8.00;67.07
69574;BME280;62840;52.366;5.980;2023-03-04T09:30:48;102441.13;;;7.98;66.80
69574;BME280;62840;52.366;5.980;2023-03-04T09:33:14;102442.06;;;7.97;66.67
69574;BME280;62840;52.366;5.980;2023-03-04T09:35:43;102436.81;;;7.95;66.71
69574;BME280;62840;52.366;5.980;2023-03-04T09:38:09;102438.63;;;7.95;66.84
69574;BME280;62840;52.366;5.980;2023-03-04T09:40:39;102443.00;;;7.96;66.89
69574;BME280;62840;52.366;5.980;2023-03-04T09:43:14;102439.41;;;7.97;66.96
69574;BME280;62840;52.366;5.980;2023-03-04T09:45:47;102434.09;;;7.97;66.86
69574;BME280;62840;52.366;5.980;2023-03-04T09:48:19;102438.63;;;7.95;67.10
69574;BME280;62840;52.366;5.980;2023-03-04T09:50:58;102450.19;;;7.94;67.28
69574;BME280;62840;52.366;5.980;2023-03-04T09:53:39;102436.25;;;7.89;67.20
69574;BME280;62840;52.366;5.980;2023-03-04T09:56:13;102447.03;;;7.86;67.46
69574;BME280;62840;52.366;5.980;2023-03-04T09:58:46;102445.16;;;7.88;67.65
69574;BME280;62840;52.366;5.980;2023-03-04T10:01:25;102441.44;;;7.92;67.54
69574;BME280;62840;52.366;5.980;2023-03-04T10:04:01;102432.25;;;7.99;67.63
69574;BME280;62840;52.366;5.980;2023-03-04T10:06:33;102438.13;;;8.06;67.15
69574;BME280;62840;52.366;5.980;2023-03-04T10:09:03;102437.94;;;8.10;67.29
69574;BME280;62840;52.366;5.980;2023-03-04T10:11:38;102431.53;;;8.14;66.92
69574;BME280;62840;52.366;5.980;2023-03-04T10:14:28;102424.34;;;8.16;66.87
69574;BME280;62840;52.366;5.980;2023-03-04T10:16:59;102427.94;;;8.15;66.73
69574;BME280;62840;52.366;5.980;2023-03-04T10:19:38;102428.94;;;8.13;66.72
69574;BME280;62840;52.366;5.980;2023-03-04T10:22:22;102435.25;;;8.10;67.03
69574;BME280;62840;52.366;5.980;2023-03-04T10:24:56;102430.22;;;8.04;67.34
69574;BME280;62840;52.366;5.980;2023-03-04T10:27:26;102428.53;;;8.03;67.48
69574;BME280;62840;52.366;5.980;2023-03-04T10:29:52;102436.50;;;8.03;67.60
69574;BME280;62840;52.366;5.980;2023-03-04T10:32:19;102423.31;;;8.00;67.87
69574;BME280;62840;52.366;5.980;2023-03-04T10:34:45;102432.38;;;7.96;68.07
69574;BME280;62840;52.366;5.980;2023-03-04T10:37:11;102419.25;;;7.93;68.51
69574;BME280;62840;52.366;5.980;2023-03-04T10:39:41;102433.47;;;7.92;68.57
69574;BME280;62840;52.366;5.980;2023-03-04T10:42:24;102421.91;;;7.93;68.85
69574;BME280;62840;52.366;5.980;2023-03-04T10:44:55;102422.47;;;8.00;69.01
69574;BME280;62840;52.366;5.980;2023-03-04T10:47:23;102428.53;;;8.03;69.06
69574;BME280;62840;52.366;5.980;2023-03-04T10:49:51;102430.22;;;8.04;69.05
69574;BME280;62840;52.366;5.980;2023-03-04T10:52:26;102422.25;;;8.04;69.23
69574;BME280;62840;52.366;5.980;2023-03-04T10:54:57;102421.56;;;8.01;68.98
69574;BME280;62840;52.366;5.980;2023-03-04T10:57:33;102425.19;;;7.98;69.04
69574;BME280;62840;52.366;5.980;2023-03-04T11:00:20;102420.81;;;7.97;69.27
69574;BME280;62840;52.366;5.980;2023-03-04T11:02:49;102422.69;;;7.95;69.06
69574;BME280;62840;52.366;5.980;2023-03-04T11:05:17;102418.31;;;7.94;69.11
69574;BME280;62840;52.366;5.980;2023-03-04T11:07:50;102420.19;;;7.92;69.14
69574;BME280;62840;52.366;5.980;2023-03-04T11:10:22;102411.28;;;7.93;69.42
69574;BME280;62840;52.366;5.980;2023-03-04T11:12:54;102422.63;;;7.96;69.66
69574;BME280;62840;52.366;5.980;2023-03-04T11:15:26;102422.47;;;8.00;69.53
69574;BME280;62840;52.366;5.980;2023-03-04T11:17:54;102425.72;;;8.06;69.56
69574;BME280;62840;52.366;5.980;2023-03-04T11:20:32;102423.06;;;8.06;69.34
69574;BME280;62840;52.366;5.980;2023-03-04T11:23:03;102432.09;;;8.02;69.14
69574;BME280;62840;52.366;5.980;2023-03-04T11:25:40;102426.94;;;7.99;69.36
69574;BME280;62840;52.366;5.980;2023-03-04T11:28:14;102420.03;;;7.95;69.29
69574;BME280;62840;52.366;5.980;2023-03-04T11:30:49;102418.44;;;7.91;69.34
69574;BME280;62840;52.366;5.980;2023-03-04T11:33:25;102419.28;;;7.91;69.44
69574;BME280;62840;52.366;5.980;2023-03-04T11:36:05;102412.28;;;7.90;69.34
69574;BME280;62840;52.366;5.980;2023-03-04T11:38:46;102421.19;;;7.89;68.93
69574;BME280;62840;52.366;5.980;2023-03-04T11:41:21;102409.84;;;7.86;69.09
69574;BME280;62840;52.366;5.980;2023-03-04T11:43:53;102405.31;;;7.88;69.04
69574;BME280;62840;52.366;5.980;2023-03-04T11:46:41;102410.19;;;7.97;69.26
69574;BME280;62840;52.366;5.980;2023-03-04T11:49:31;102405.41;;;8.05;69.11
69574;BME280;62840;52.366;5.980;2023-03-04T11:52:22;102402.38;;;8.13;68.96
69574;BME280;62840;52.366;5.980;2023-03-04T11:55:07;102406.59;;;8.17;69.08
69574;BME280;62840;52.366;5.980;2023-03-04T11:57:57;102395.13;;;8.16;68.48
69574;BME280;62840;52.366;5.980;2023-03-04T12:00:47;102406.66;;;8.15;68.45
69574;BME280;62840;52.366;5.980;2023-03-04T12:03:33;102401.34;;;8.15;68.34
69574;BME280;62840;52.366;5.980;2023-03-04T12:06:26;102387.28;;;8.13;67.76
69574;BME280;62840;52.366;5.980;2023-03-04T12:09:07;102391.81;;;8.11;67.15
69574;BME280;62840;52.366;5.980;2023-03-04T12:11:53;102393.66;;;8.09;67.21
69574;BME280;62840;52.366;5.980;2023-03-04T12:14:36;102400.56;;;8.13;67.20
69574;BME280;62840;52.366;5.980;2023-03-04T12:17:20;102385.47;;;8.14;66.80
69574;BME280;62840;52.366;5.980;2023-03-04T12:20:07;102389.03;;;8.14;66.39
69574;BME280;62840;52.366;5.980;2023-03-04T12:23:02;102385.69;;;8.09;66.27
69574;BME280;62840;52.366;5.980;2023-03-04T12:25:43;102384.03;;;8.07;65.85
69574;BME280;62840;52.366;5.980;2023-03-04T12:28:29;102385.69;;;8.09;65.90
69574;BME280;62840;52.366;5.980;2023-03-04T12:31:15;102380.25;;;8.12;66.17
69574;BME280;62840;52.366;5.980;2023-03-04T12:34:13;102376.53;;;8.16;65.73
69574;BME280;62840;52.366;5.980;2023-03-04T12:37:17;102374.63;;;8.18;65.31
69574;BME280;62840;52.366;5.980;2023-03-04T12:40:22;102367.66;;;8.16;65.53
69574;BME280;62840;52.366;5.980;2023-03-04T12:43:07;102375.63;;;8.16;65.62
69574;BME280;62840;52.366;5.980;2023-03-04T12:45:56;102362.44;;;8.14;65.66
69574;BME280;62840;52.366;5.980;2023-03-04T12:48:34;102362.28;;;8.17;65.56
69574;BME280;62840;52.366;5.980;2023-03-04T12:51:19;102352.28;;;8.23;65.48
69574;BME280;62840;52.366;5.980;2023-03-04T12:54:02;102359.97;;;8.29;65.31
69574;BME280;62840;52.366;5.980;2023-03-04T12:56:43;102358.88;;;8.33;65.22
69574;BME280;62840;52.366;5.980;2023-03-04T12:59:17;102348.88;;;8.38;64.72
69574;BME280;62840;52.366;5.980;2023-03-04T13:01:49;102347.00;;;8.40;64.82
69574;BME280;62840;52.366;5.980;2023-03-04T13:04:28;102343.41;;;8.41;63.78
69574;BME280;62840;52.366;5.980;2023-03-04T13:07:15;102355.94;;;8.39;64.22
69574;BME280;62840;52.366;5.980;2023-03-04T13:09:53;102347.19;;;8.37;64.03
69574;BME280;62840;52.366;5.980;2023-03-04T13:12:24;102343.72;;;8.35;64.14